createdAt,value
2019-05-26T00:00:04.362Z,16.00
2019-05-26T00:02:12.353Z,17.35
2019-05-26T00:04:18.888Z,17.12
2019-05-26T00:06:25.512Z,19.02
2019-05-26T00:08:31.957Z,17.75
2019-05-26T00:10:38.570Z,21.73
2019-05-26T00:12:45.872Z,18.77
2019-05-26T00:14:52.379Z,16.80
2019-05-26T00:16:58.750Z,16.20
2019-05-26T00:19:05.357Z,17.42
2019-05-26T00:21:12.986Z,17.82
2019-05-26T00:23:19.409Z,17.60
2019-05-26T00:25:25.875Z,15.63
2019-05-26T00:27:32.341Z,14.20
2019-05-26T00:29:38.755Z,15.95
2019-05-26T00:31:45.189Z,14.90
2019-05-26T00:33:51.817Z,13.58
2019-05-26T00:35:58.374Z,17.45
2019-05-26T00:38:04.953Z,12.73
2019-05-26T00:40:12.142Z,14.63
2019-05-26T00:42:18.542Z,13.15
2019-05-26T00:44:25.160Z,14.35
2019-05-26T00:46:31.638Z,12.33
2019-05-26T00:48:38.201Z,13.20
2019-05-26T00:50:44.811Z,12.85
2019-05-26T00:52:51.254Z,13.28
2019-05-26T00:54:58.834Z,15.60
2019-05-26T00:57:05.576Z,16.55
2019-05-26T00:59:12.215Z,14.53
2019-05-26T01:01:18.615Z,15.15
2019-05-26T01:03:25.030Z,17.70
2019-05-26T01:05:31.387Z,15.20
2019-05-26T01:07:39.502Z,13.93
2019-05-26T01:09:45.947Z,13.22
2019-05-26T01:11:52.340Z,15.13
2019-05-26T01:13:58.731Z,12.15
2019-05-26T01:16:05.183Z,14.55
2019-05-26T01:18:11.765Z,15.68
2019-05-26T01:20:18.512Z,18.60
2019-05-26T01:22:24.903Z,14.03
2019-05-26T01:24:31.386Z,13.35
2019-05-26T01:26:37.785Z,13.55
2019-05-26T01:28:44.211Z,14.50
2019-05-26T01:30:50.700Z,13.55
2019-05-26T01:32:57.262Z,14.03
2019-05-26T01:35:04.564Z,12.43
2019-05-26T01:37:11.287Z,15.30
2019-05-26T01:39:17.780Z,14.60
2019-05-26T01:41:24.277Z,12.85
2019-05-26T01:43:31.777Z,14.45
2019-05-26T01:45:38.467Z,14.58
2019-05-26T01:47:44.826Z,12.73
2019-05-26T01:49:51.333Z,13.80
2019-05-26T01:51:57.787Z,13.32
2019-05-26T01:54:04.213Z,12.95
2019-05-26T01:56:10.631Z,14.75
2019-05-26T01:58:17.133Z,19.82
2019-05-26T02:00:24.770Z,15.50
2019-05-26T02:02:31.111Z,15.28
2019-05-26T02:04:37.640Z,13.35
2019-05-26T02:06:44.177Z,14.93
2019-05-26T02:08:50.731Z,12.03
2019-05-26T02:10:57.173Z,11.38
2019-05-26T02:13:03.692Z,13.43
2019-05-26T02:15:11.503Z,14.13
2019-05-26T02:17:18.035Z,13.25
2019-05-26T02:19:24.438Z,15.38
2019-05-26T02:21:30.837Z,13.65
2019-05-26T02:23:37.198Z,14.40
2019-05-26T02:25:43.665Z,15.00
2019-05-26T02:27:50.050Z,17.02
2019-05-26T02:29:56.569Z,15.55
2019-05-26T02:32:02.996Z,17.57
2019-05-26T02:34:09.369Z,13.40
2019-05-26T02:36:15.880Z,14.93
2019-05-26T02:38:25.874Z,15.78
2019-05-26T02:40:30.672Z,13.93
2019-05-26T02:42:37.596Z,13.70
2019-05-26T02:44:44.000Z,18.55
2019-05-26T02:46:50.369Z,17.62
2019-05-26T02:48:56.941Z,16.45
2019-05-26T02:51:03.363Z,15.70
2019-05-26T02:53:09.880Z,16.10
2019-05-26T02:55:17.309Z,15.23
2019-05-26T02:57:23.834Z,18.95
2019-05-26T02:59:30.201Z,15.35
2019-05-26T03:01:37.608Z,19.10
2019-05-26T03:03:44.377Z,26.68
2019-05-26T03:05:52.137Z,25.05
2019-05-26T03:07:59.039Z,22.32
2019-05-26T03:10:06.837Z,18.98
2019-05-26T03:12:13.273Z,15.00
2019-05-26T03:14:22.028Z,16.25
2019-05-26T03:16:31.441Z,15.18
2019-05-26T03:18:39.431Z,18.67
2019-05-26T03:20:47.149Z,12.70
2019-05-26T03:22:58.289Z,18.35
2019-05-26T03:25:05.901Z,15.88
2019-05-26T03:27:12.382Z,16.87
2019-05-26T03:29:18.767Z,14.38
2019-05-26T03:31:25.285Z,18.23
2019-05-26T03:33:32.797Z,14.53
2019-05-26T03:35:39.329Z,16.37
2019-05-26T03:37:47.049Z,13.30
2019-05-26T03:39:53.537Z,17.32
2019-05-26T03:41:59.957Z,12.85
2019-05-26T03:44:06.524Z,14.10
2019-05-26T03:46:20.495Z,11.22
2019-05-26T03:48:26.942Z,13.22
2019-05-26T03:50:33.355Z,12.20
2019-05-26T03:52:39.774Z,15.05
2019-05-26T03:54:46.194Z,14.53
2019-05-26T03:56:52.574Z,14.75
2019-05-26T03:58:59.341Z,14.23
2019-05-26T04:01:05.919Z,17.60
2019-05-26T04:03:12.342Z,14.35
2019-05-26T04:05:18.898Z,16.15
2019-05-26T04:07:25.286Z,12.80
2019-05-26T04:09:31.822Z,12.75
2019-05-26T04:11:38.261Z,14.90
2019-05-26T04:13:44.749Z,13.80
2019-05-26T04:15:54.113Z,13.83
2019-05-26T04:18:00.517Z,11.68
2019-05-26T04:20:07.824Z,14.20
2019-05-26T04:22:14.266Z,12.58
2019-05-26T04:24:20.673Z,12.47
2019-05-26T04:26:27.048Z,13.72
2019-05-26T04:28:33.444Z,12.73
2019-05-26T04:30:39.894Z,13.28
2019-05-26T04:32:46.341Z,11.57
2019-05-26T04:34:52.736Z,10.78
2019-05-26T04:36:59.203Z,12.90
2019-05-26T04:39:07.930Z,14.03
2019-05-26T04:43:19.899Z,9.65
2019-05-26T04:45:26.349Z,15.48
2019-05-26T04:47:32.718Z,12.90
2019-05-26T04:49:39.229Z,11.60
2019-05-26T04:51:45.632Z,11.80
2019-05-26T04:53:52.041Z,12.98
2019-05-26T04:55:58.549Z,10.72
2019-05-26T04:58:05.425Z,11.57
2019-05-26T05:00:12.439Z,13.40
2019-05-26T05:02:18.832Z,13.62
2019-05-26T05:04:25.319Z,16.52
2019-05-26T05:06:31.791Z,15.50
2019-05-26T05:08:38.322Z,14.03
2019-05-26T05:10:44.731Z,16.40
2019-05-26T05:12:51.322Z,13.48
2019-05-26T05:14:57.727Z,11.53
2019-05-26T05:17:04.231Z,11.03
2019-05-26T05:19:10.607Z,13.80
2019-05-26T05:21:17.081Z,8.60
2019-05-26T05:23:23.562Z,11.08
2019-05-26T05:25:30.034Z,8.55
2019-05-26T05:27:36.548Z,9.60
2019-05-26T05:29:43.013Z,11.03
2019-05-26T05:31:49.462Z,10.80
2019-05-26T05:33:55.830Z,8.03
2019-05-26T05:36:02.274Z,11.33
2019-05-26T05:38:08.680Z,10.50
2019-05-26T05:40:16.190Z,8.70
2019-05-26T05:42:22.909Z,8.20
2019-05-26T05:44:29.373Z,8.58
2019-05-26T05:46:35.821Z,9.03
2019-05-26T05:48:42.248Z,6.78
2019-05-26T05:50:48.693Z,5.42
2019-05-26T05:52:55.213Z,5.60
2019-05-26T05:55:02.544Z,6.80
2019-05-26T05:57:09.103Z,5.58
2019-05-26T05:59:15.475Z,5.97
2019-05-26T06:01:21.852Z,5.10
2019-05-26T06:03:28.277Z,4.95
2019-05-26T06:05:35.764Z,5.58
2019-05-26T06:07:42.152Z,5.40
2019-05-26T06:09:49.731Z,6.20
2019-05-26T06:14:04.139Z,2.87
2019-05-26T06:16:10.550Z,5.00
2019-05-26T06:18:17.005Z,4.60
2019-05-26T06:20:23.502Z,5.28
2019-05-26T06:22:29.957Z,4.22
2019-05-26T06:24:37.540Z,6.35
2019-05-26T06:26:43.955Z,7.42
2019-05-26T06:28:52.451Z,5.00
2019-05-26T06:30:59.724Z,5.17
2019-05-26T06:33:07.865Z,10.93
2019-05-26T06:35:15.688Z,7.15
2019-05-26T06:37:22.170Z,5.40
2019-05-26T06:39:28.746Z,6.20
2019-05-26T06:41:35.181Z,8.40
2019-05-26T06:43:42.363Z,6.85
2019-05-26T06:45:48.874Z,7.33
2019-05-26T06:47:55.459Z,8.90
2019-05-26T06:50:03.676Z,8.18
2019-05-26T06:52:10.158Z,6.85
2019-05-26T06:54:16.565Z,6.12
2019-05-26T06:56:23.033Z,4.45
2019-05-26T06:58:29.435Z,6.97
2019-05-26T07:00:35.831Z,5.97
2019-05-26T07:02:42.320Z,5.17
2019-05-26T07:04:48.828Z,6.53
2019-05-26T07:06:55.179Z,5.53
2019-05-26T07:09:01.622Z,5.50
2019-05-26T07:11:09.467Z,5.58
2019-05-26T07:13:15.908Z,6.87
2019-05-26T07:15:22.631Z,4.65
2019-05-26T07:17:29.249Z,8.55
2019-05-26T07:19:35.692Z,7.25
2019-05-26T07:21:42.076Z,5.20
2019-05-26T07:23:48.522Z,9.38
2019-05-26T07:25:54.918Z,5.08
2019-05-26T07:28:01.438Z,4.03
2019-05-26T07:30:09.508Z,6.12
2019-05-26T07:32:15.925Z,5.90
2019-05-26T07:34:22.455Z,4.62
2019-05-26T07:36:29.084Z,5.72
2019-05-26T07:38:35.467Z,6.03
2019-05-26T07:40:41.934Z,7.55
2019-05-26T07:42:48.373Z,5.17
2019-05-26T07:44:54.793Z,6.40
2019-05-26T07:47:01.220Z,5.67
2019-05-26T07:49:07.971Z,4.30
2019-05-26T07:51:14.456Z,3.65
2019-05-26T07:53:21.525Z,3.25
2019-05-26T07:55:28.509Z,5.15
2019-05-26T07:57:34.970Z,15.18
2019-05-26T07:59:41.450Z,8.05
2019-05-26T08:01:47.904Z,4.58
2019-05-26T08:03:54.366Z,4.80
2019-05-26T08:06:00.880Z,7.80
2019-05-26T08:08:12.698Z,4.12
2019-05-26T08:10:17.197Z,5.87
2019-05-26T08:12:28.187Z,5.17
2019-05-26T08:23:03.607Z,5.92
2019-05-26T08:25:10.942Z,7.12
2019-05-26T08:27:17.337Z,4.67
2019-05-26T08:29:25.288Z,8.18
2019-05-26T08:31:31.767Z,4.20
2019-05-26T08:33:38.190Z,5.75
2019-05-26T08:35:44.672Z,4.70
2019-05-26T08:37:51.048Z,4.35
2019-05-26T08:39:59.083Z,5.83
2019-05-26T08:42:05.765Z,6.05
2019-05-26T08:44:12.232Z,6.83
2019-05-26T08:46:18.997Z,5.10
2019-05-26T08:48:25.424Z,3.52
2019-05-26T08:50:34.254Z,5.03
2019-05-26T08:52:40.348Z,5.20
2019-05-26T08:54:46.837Z,5.85
2019-05-26T08:56:54.775Z,3.58
2019-05-26T08:59:01.146Z,3.80
2019-05-26T09:01:07.605Z,3.45
2019-05-26T09:03:14.141Z,3.95
2019-05-26T09:05:21.678Z,4.80
2019-05-26T09:07:28.122Z,4.33
2019-05-26T09:09:34.625Z,3.37
2019-05-26T09:11:41.126Z,4.20
2019-05-26T09:13:47.495Z,7.92
2019-05-26T09:15:53.896Z,6.62
2019-05-26T09:18:00.316Z,8.20
2019-05-26T09:20:11.583Z,4.55
2019-05-26T09:22:17.745Z,6.65
2019-05-26T09:24:24.181Z,4.30
2019-05-26T09:26:30.551Z,5.25
2019-05-26T09:28:37.001Z,4.22
2019-05-26T09:30:43.419Z,7.62
2019-05-26T09:32:49.930Z,6.42
2019-05-26T09:34:56.379Z,2.98
2019-05-26T09:37:02.934Z,7.53
2019-05-26T09:39:09.782Z,5.22
2019-05-26T09:41:16.578Z,6.37
2019-05-26T09:43:23.070Z,4.90
2019-05-26T09:45:31.122Z,4.58
2019-05-26T09:47:37.752Z,6.58
2019-05-26T09:49:44.184Z,6.12
2019-05-26T09:51:51.786Z,4.62
2019-05-26T09:54:01.636Z,7.97
2019-05-26T09:56:06.523Z,4.62
2019-05-26T09:58:13.004Z,7.42
2019-05-26T10:00:20.441Z,3.52
2019-05-26T10:02:26.867Z,3.90
2019-05-26T10:04:33.377Z,5.20
2019-05-26T10:06:39.781Z,4.20
2019-05-26T10:08:46.403Z,5.12
2019-05-26T10:10:52.857Z,5.08
2019-05-26T10:12:59.333Z,4.17
2019-05-26T10:15:07.845Z,2.60
2019-05-26T10:18:08.777Z,5.60
2019-05-26T10:20:16.448Z,5.62
2019-05-26T10:22:22.950Z,4.33
2019-05-26T10:24:32.025Z,3.80
2019-05-26T10:26:39.021Z,4.90
2019-05-26T10:28:45.389Z,7.10
2019-05-26T10:30:51.891Z,8.43
2019-05-26T10:33:00.899Z,5.95
2019-05-26T10:35:09.683Z,5.97
2019-05-26T10:37:16.129Z,5.87
2019-05-26T10:39:23.689Z,5.03
2019-05-26T10:41:30.138Z,9.35
2019-05-26T10:43:46.814Z,6.10
2019-05-26T10:45:46.156Z,4.55
2019-05-26T10:47:52.546Z,3.55
2019-05-26T10:49:59.148Z,3.55
2019-05-26T10:52:05.808Z,7.08
2019-05-26T10:54:12.329Z,4.30
2019-05-26T10:56:18.766Z,6.72
2019-05-26T10:58:25.223Z,5.72
2019-05-26T11:00:33.060Z,5.45
2019-05-26T11:02:40.037Z,3.80
2019-05-26T11:04:46.455Z,8.93
2019-05-26T11:06:52.821Z,6.95
2019-05-26T11:08:59.249Z,6.05
2019-05-26T11:11:05.816Z,3.50
2019-05-26T11:13:12.259Z,5.00
2019-05-26T11:15:19.445Z,3.75
2019-05-26T11:17:25.884Z,6.03
2019-05-26T11:19:32.305Z,5.33
2019-05-26T11:21:38.679Z,5.30
2019-05-26T11:23:45.103Z,3.65
2019-05-26T11:25:51.503Z,5.85
2019-05-26T11:27:57.973Z,5.03
2019-05-26T11:30:07.348Z,6.37
2019-05-26T11:32:13.737Z,3.65
2019-05-26T11:34:20.175Z,3.98
2019-05-26T11:36:26.551Z,2.50
2019-05-26T11:38:33.824Z,5.00
2019-05-26T11:40:40.561Z,8.93
2019-05-26T11:42:47.082Z,9.63
2019-05-26T11:44:53.491Z,4.33
2019-05-26T11:47:00.134Z,3.62
2019-05-26T11:49:06.644Z,4.75
2019-05-26T11:51:13.067Z,4.28
2019-05-26T11:53:21.057Z,3.80
2019-05-26T11:55:29.374Z,2.85
2019-05-26T11:57:37.153Z,5.67
2019-05-26T11:59:47.129Z,4.90
2019-05-26T12:01:52.014Z,5.70
2019-05-26T12:03:58.529Z,10.60
2019-05-26T12:06:05.178Z,4.97
2019-05-26T12:08:11.610Z,3.30
2019-05-26T12:10:19.915Z,3.55
2019-05-26T12:12:27.872Z,3.05
2019-05-26T12:14:35.621Z,6.65
2019-05-26T12:16:42.161Z,5.30
2019-05-26T12:18:48.551Z,6.15
2019-05-26T12:20:55.019Z,5.35
2019-05-26T12:23:01.436Z,5.20
2019-05-26T12:25:10.698Z,4.65
2019-05-26T12:27:17.217Z,6.55
2019-05-26T12:29:23.547Z,4.03
2019-05-26T12:31:29.927Z,5.72
2019-05-26T12:33:36.410Z,6.75
2019-05-26T12:35:48.663Z,5.05
2019-05-26T12:37:55.062Z,10.40
2019-05-26T12:40:01.445Z,5.17
2019-05-26T12:42:09.349Z,5.75
2019-05-26T12:44:15.789Z,6.65
2019-05-26T12:46:22.208Z,9.60
2019-05-26T12:48:28.704Z,5.65
2019-05-26T12:50:36.498Z,5.92
2019-05-26T12:52:42.965Z,9.55
2019-05-26T12:54:49.391Z,6.65
2019-05-26T12:56:56.566Z,6.92
2019-05-26T12:59:02.962Z,5.20
2019-05-26T13:01:09.458Z,4.67
2019-05-26T13:03:15.945Z,5.22
2019-05-26T13:05:22.858Z,7.08
2019-05-26T13:07:29.448Z,5.47
2019-05-26T13:09:35.975Z,7.28
2019-05-26T13:11:42.481Z,6.25
2019-05-26T13:13:48.850Z,7.92
2019-05-26T13:15:55.319Z,6.75
2019-05-26T13:18:01.897Z,9.83
2019-05-26T13:20:10.268Z,4.30
2019-05-26T13:22:16.828Z,6.40
2019-05-26T13:24:23.264Z,5.03
2019-05-26T13:26:29.706Z,6.72
2019-05-26T13:28:36.220Z,8.43
2019-05-26T13:30:42.648Z,4.67
2019-05-26T13:32:49.113Z,7.45
2019-05-26T13:34:55.604Z,6.17
2019-05-26T13:37:03.717Z,10.98
2019-05-26T13:39:10.530Z,8.73
2019-05-26T13:41:16.964Z,8.13
2019-05-26T13:43:23.466Z,10.45
2019-05-26T13:45:29.828Z,4.37
2019-05-26T13:47:36.275Z,7.05
2019-05-26T13:49:42.732Z,6.17
2019-05-26T13:51:50.530Z,4.45
2019-05-26T13:53:57.166Z,4.77
2019-05-26T13:56:03.537Z,5.37
2019-05-26T13:58:10.026Z,10.05
2019-05-26T14:00:20.446Z,7.17
2019-05-26T14:02:27.027Z,7.42
2019-05-26T14:04:33.474Z,6.28
2019-05-26T14:06:39.872Z,6.58
2019-05-26T14:08:46.283Z,6.90
2019-05-26T14:10:52.809Z,4.65
2019-05-26T14:12:59.814Z,4.60
2019-05-26T14:15:11.090Z,5.53
2019-05-26T14:17:18.896Z,6.28
2019-05-26T14:19:28.504Z,5.13
2019-05-26T14:21:34.961Z,5.22
2019-05-26T14:23:44.846Z,7.87
2019-05-26T14:27:56.936Z,5.87
2019-05-26T14:30:04.706Z,4.58
2019-05-26T14:32:11.202Z,4.37
2019-05-26T14:34:17.679Z,4.47
2019-05-26T14:36:24.136Z,5.83
2019-05-26T14:38:42.914Z,6.53
2019-05-26T14:40:42.221Z,14.60
2019-05-26T14:42:48.584Z,4.70
2019-05-26T14:44:55.069Z,8.65
2019-05-26T14:47:01.616Z,7.55
2019-05-26T14:49:08.146Z,4.72
2019-05-26T14:51:14.562Z,6.03
2019-05-26T14:53:22.281Z,4.67
2019-05-26T14:55:28.702Z,6.22
2019-05-26T14:57:38.107Z,8.13
2019-05-26T14:59:45.820Z,6.20
2019-05-26T15:01:54.016Z,5.92
2019-05-26T15:04:01.279Z,5.08
2019-05-26T15:06:08.685Z,4.33
2019-05-26T15:08:15.047Z,4.30
2019-05-26T15:10:23.215Z,8.35
2019-05-26T15:12:32.709Z,3.98
2019-05-26T15:14:44.705Z,6.22
2019-05-26T15:16:52.013Z,4.40
2019-05-26T15:18:59.919Z,8.80
2019-05-26T15:21:06.319Z,9.48
2019-05-26T15:23:16.068Z,7.20
2019-05-26T15:25:22.443Z,6.75
2019-05-26T15:27:30.247Z,4.50
2019-05-26T15:29:36.656Z,4.65
2019-05-26T15:31:43.089Z,6.12
2019-05-26T15:33:49.570Z,6.83
2019-05-26T15:35:56.055Z,7.22
2019-05-26T15:38:02.523Z,6.40
2019-05-26T15:40:10.314Z,5.00
2019-05-26T15:42:16.786Z,5.30
2019-05-26T15:44:24.237Z,7.70
2019-05-26T15:46:32.186Z,5.03
2019-05-26T15:48:38.568Z,4.80
2019-05-26T15:50:45.047Z,5.62
2019-05-26T15:52:53.406Z,9.35
2019-05-26T15:55:01.149Z,3.67
2019-05-26T15:57:08.662Z,4.55
2019-05-26T15:59:16.546Z,8.18
2019-05-26T16:01:22.911Z,5.60
2019-05-26T16:03:29.659Z,8.48
2019-05-26T16:05:36.282Z,6.72
2019-05-26T16:07:42.701Z,3.22
2019-05-26T16:09:49.475Z,6.95
2019-05-26T16:11:55.974Z,6.33
2019-05-26T16:14:04.162Z,6.78
2019-05-26T16:16:10.582Z,9.13
2019-05-26T16:18:20.299Z,5.47
2019-05-26T16:20:26.790Z,5.47
2019-05-26T16:22:33.273Z,9.50
2019-05-26T16:24:40.968Z,8.38
2019-05-26T16:26:48.355Z,5.40
2019-05-26T16:28:57.518Z,7.78
2019-05-26T16:31:04.045Z,3.60
2019-05-26T16:33:10.396Z,4.17
2019-05-26T16:35:17.571Z,4.08
2019-05-26T16:37:24.019Z,5.08
2019-05-26T16:39:37.073Z,11.18
2019-05-26T16:43:46.736Z,4.80
2019-05-26T16:45:56.243Z,3.98
2019-05-26T16:48:01.170Z,13.78
2019-05-26T16:50:09.590Z,5.75
2019-05-26T16:52:16.114Z,5.67
2019-05-26T16:54:22.750Z,4.47
2019-05-26T16:56:29.150Z,3.70
2019-05-26T16:58:35.727Z,5.55
2019-05-26T17:00:43.833Z,6.67
2019-05-26T17:02:52.559Z,15.10
2019-05-26T17:04:59.159Z,7.85
2019-05-26T17:07:05.733Z,4.28
2019-05-26T17:09:12.238Z,4.80
2019-05-26T17:11:18.697Z,5.55
2019-05-26T17:13:25.195Z,5.17
2019-05-26T17:15:31.658Z,4.72
2019-05-26T17:17:38.231Z,6.80
2019-05-26T17:19:44.678Z,4.03
2019-05-26T17:21:51.128Z,6.95
2019-05-26T17:23:57.707Z,8.73
2019-05-26T17:26:04.142Z,6.30
2019-05-26T17:28:10.664Z,5.58
2019-05-26T17:30:17.705Z,3.62
2019-05-26T17:32:24.195Z,4.60
2019-05-26T17:34:30.571Z,5.70
2019-05-26T17:36:36.950Z,5.60
2019-05-26T17:38:43.526Z,6.17
2019-05-26T17:40:49.984Z,4.50
2019-05-26T17:42:56.520Z,8.25
2019-05-26T17:45:03.034Z,3.67
2019-05-26T17:47:09.548Z,9.18
2019-05-26T17:49:15.949Z,4.33
2019-05-26T17:51:22.374Z,6.87
2019-05-26T17:53:28.819Z,6.55
2019-05-26T17:55:35.256Z,7.60
2019-05-26T17:57:42.195Z,4.75
2019-05-26T17:59:48.645Z,10.63
2019-05-26T18:01:55.125Z,8.70
2019-05-26T18:04:01.497Z,4.62
2019-05-26T18:06:09.320Z,5.72
2019-05-26T18:08:17.909Z,4.80
2019-05-26T18:10:24.781Z,5.58
2019-05-26T18:12:31.261Z,4.85
2019-05-26T18:14:37.827Z,7.10
2019-05-26T18:16:44.235Z,4.72
2019-05-26T18:18:51.161Z,4.60
2019-05-26T18:20:57.681Z,5.53
2019-05-26T18:23:04.142Z,8.15
2019-05-26T18:25:11.611Z,11.40
2019-05-26T18:27:18.216Z,9.93
2019-05-26T18:29:24.917Z,7.58
2019-05-26T18:31:31.420Z,4.72
2019-05-26T18:33:37.850Z,7.75
2019-05-26T18:35:45.041Z,8.23
2019-05-26T18:37:53.527Z,4.90
2019-05-26T18:40:00.083Z,6.97
2019-05-26T18:42:06.909Z,8.85
2019-05-26T18:44:13.323Z,8.05
2019-05-26T18:46:20.179Z,5.42
2019-05-26T18:48:26.657Z,8.48
2019-05-26T18:50:34.772Z,5.03
2019-05-26T18:52:41.424Z,7.23
2019-05-26T18:54:47.870Z,5.33
2019-05-26T18:56:54.321Z,5.53
2019-05-26T18:59:00.679Z,5.67
2019-05-26T19:01:07.513Z,6.87
2019-05-26T19:03:14.029Z,5.30
2019-05-26T19:05:33.104Z,7.95
2019-05-26T19:07:30.645Z,10.50
2019-05-26T19:09:37.205Z,6.90
2019-05-26T19:11:43.640Z,6.75
2019-05-26T19:13:50.165Z,6.03
2019-05-26T19:15:56.623Z,8.05
2019-05-26T19:18:18.675Z,6.58
2019-05-26T19:20:16.516Z,6.67
2019-05-26T19:22:21.010Z,9.18
2019-05-26T19:24:29.573Z,12.55
2019-05-26T19:26:36.047Z,11.03
2019-05-26T19:28:42.600Z,10.93
2019-05-26T19:30:49.061Z,12.60
2019-05-26T19:32:55.513Z,10.00
2019-05-26T19:35:01.909Z,8.93
2019-05-26T19:37:08.606Z,10.18
2019-05-26T19:39:14.998Z,9.60
2019-05-26T19:41:21.459Z,10.55
2019-05-26T19:43:27.958Z,10.70
2019-05-26T19:45:34.443Z,9.65
2019-05-26T19:47:41.030Z,9.40
2019-05-26T19:49:47.594Z,11.35
2019-05-26T19:51:54.036Z,8.25
2019-05-26T19:54:00.602Z,11.73
2019-05-26T19:56:07.212Z,14.75
2019-05-26T19:58:13.894Z,10.68
2019-05-26T20:00:21.675Z,15.00
2019-05-26T20:02:28.198Z,12.50
2019-05-26T20:04:34.673Z,11.50
2019-05-26T20:06:43.851Z,12.82
2019-05-26T20:08:49.432Z,14.93
2019-05-26T20:10:55.935Z,12.53
2019-05-26T20:13:02.485Z,11.70
2019-05-26T20:15:11.145Z,11.25
2019-05-26T20:17:17.617Z,10.15
2019-05-26T20:19:24.129Z,11.80
2019-05-26T20:21:30.645Z,11.18
2019-05-26T20:23:37.222Z,12.13
2019-05-26T20:25:44.038Z,14.47
2019-05-26T20:27:50.449Z,11.12
2019-05-26T20:29:56.949Z,16.15
2019-05-26T20:32:03.536Z,18.05
2019-05-26T20:34:10.161Z,16.67
2019-05-26T20:36:16.699Z,15.63
2019-05-26T20:38:23.236Z,11.48
2019-05-26T20:40:29.792Z,18.35
2019-05-26T20:42:36.271Z,10.85
2019-05-26T20:44:42.768Z,14.70
2019-05-26T20:46:49.365Z,15.48
2019-05-26T20:48:55.881Z,12.15
2019-05-26T20:51:03.480Z,17.98
2019-05-26T20:53:09.878Z,12.10
2019-05-26T20:55:16.602Z,12.60
2019-05-26T20:57:25.325Z,13.00
2019-05-26T20:59:31.897Z,12.53
2019-05-26T21:01:40.287Z,14.63
2019-05-26T21:03:46.706Z,12.30
2019-05-26T21:05:53.155Z,14.78
2019-05-26T21:08:00.687Z,15.78
2019-05-26T21:10:08.479Z,18.37
2019-05-26T21:12:14.937Z,14.43
2019-05-26T21:14:22.407Z,15.23
2019-05-26T21:16:31.958Z,16.45
2019-05-26T21:18:38.375Z,18.70
2019-05-26T21:20:46.475Z,17.87
2019-05-26T21:22:53.110Z,17.43
2019-05-26T21:24:59.487Z,17.20
2019-05-26T21:27:06.028Z,20.77
2019-05-26T21:29:12.658Z,16.65
2019-05-26T21:31:19.105Z,20.57
2019-05-26T21:33:25.655Z,24.10
2019-05-26T21:35:32.052Z,17.48
2019-05-26T21:37:38.638Z,20.88
2019-05-26T21:39:45.128Z,17.30
2019-05-26T21:41:51.716Z,18.00
2019-05-26T21:43:58.266Z,20.15
2019-05-26T21:46:04.860Z,16.57
2019-05-26T21:48:11.334Z,15.63
2019-05-26T21:50:18.320Z,16.65
2019-05-26T21:52:24.806Z,15.60
2019-05-26T21:54:32.491Z,12.95
2019-05-26T21:56:38.995Z,17.12
2019-05-26T21:58:45.415Z,18.25
2019-05-26T22:00:52.695Z,17.77
2019-05-26T22:02:59.228Z,18.55
2019-05-26T22:05:08.036Z,16.73
2019-05-26T22:07:14.620Z,14.78
2019-05-26T22:09:22.590Z,15.18
2019-05-26T22:11:29.104Z,17.40
2019-05-26T22:13:35.509Z,14.58
2019-05-26T22:15:42.009Z,13.80
2019-05-26T22:17:48.558Z,14.68
2019-05-26T22:19:55.002Z,13.35
2019-05-26T22:22:01.573Z,11.85
2019-05-26T22:24:08.098Z,15.45
2019-05-26T22:26:14.662Z,16.10
2019-05-26T22:28:21.158Z,11.80
2019-05-26T22:30:27.599Z,12.78
2019-05-26T22:32:34.182Z,13.83
2019-05-26T22:34:40.740Z,14.95
2019-05-26T22:36:47.186Z,15.03
2019-05-26T22:38:54.959Z,11.22
2019-05-26T22:41:01.520Z,12.43
2019-05-26T22:43:07.997Z,11.53
2019-05-26T22:45:15.023Z,12.13
2019-05-26T22:47:21.446Z,10.60
2019-05-26T22:49:27.902Z,13.78
2019-05-26T22:51:34.423Z,12.15
2019-05-26T22:53:40.945Z,10.10
2019-05-26T22:55:47.540Z,13.90
2019-05-26T22:57:53.919Z,12.35
2019-05-26T23:00:00.565Z,11.05
2019-05-26T23:02:07.250Z,9.95
2019-05-26T23:04:13.851Z,10.70
2019-05-26T23:06:20.367Z,10.35
2019-05-26T23:08:26.914Z,10.35
2019-05-26T23:10:33.370Z,11.33
2019-05-26T23:12:39.901Z,11.10
2019-05-26T23:14:46.437Z,10.38
2019-05-26T23:16:52.941Z,9.58
2019-05-26T23:18:59.431Z,8.93
2019-05-26T23:21:06.075Z,10.00
2019-05-26T23:23:12.555Z,11.15
2019-05-26T23:25:19.164Z,11.33
2019-05-26T23:27:25.732Z,11.93
2019-05-26T23:29:32.165Z,10.65
2019-05-26T23:31:38.630Z,12.07
2019-05-26T23:33:45.040Z,13.60
2019-05-26T23:35:51.563Z,11.60
2019-05-26T23:37:58.104Z,14.43
2019-05-26T23:40:07.739Z,12.33
2019-05-26T23:42:14.287Z,12.28
2019-05-26T23:44:20.722Z,14.47
2019-05-26T23:46:27.263Z,10.43
2019-05-26T23:48:33.785Z,10.30
2019-05-26T23:50:40.271Z,10.30
2019-05-26T23:52:46.796Z,10.40
2019-05-26T23:54:53.242Z,14.63
2019-05-26T23:56:59.696Z,15.23
2019-05-26T23:59:06.250Z,11.12
